This demonstration page uses our WeatherBlox Daily Observations layout. Learn more.

Left ArrowRight Arrow

39.92423, -83.80882

Hourly Observations for August 5, 2019

Temp ( °F °C ) Dew Point ( °F °C ) Humidity (%) Winds ( mph kmh ) Pressure ( in mb ) Visibility ( mi km ) Precip ( " mm )
12:56 am 00:56 Clear 68 20 64 17.8 87 87 ESE 3 6 30 1016 10 16.0934 N/A
1:56 am 01:56 Partly Cloudy 67 19.4 63 17.2 87 87 N N/A 30 1016 10 16.0934 N/A
2:56 am 02:56 Clear 64 17.8 63 17.2 96 96 N N/A 30 1016 10 16.0934 N/A
3:56 am 03:56 Clear 64 17.8 63 17.2 96 96 N N/A 30 1016 10 16.0934 N/A
4:56 am 04:56 Clear 64 17.8 63 17.2 96 96 N N/A 29.99 1016 10 16.0934 N/A
5:56 am 05:56 Clear 63 17.2 62 16.7 97 97 N N/A 29.99 1016 10 16.0934 N/A
6:56 am 06:56 Sunny 62 16.7 62 16.7 100 100 N N/A 30 1016 10 16.0934 N/A
7:56 am 07:56 Sunny 67 19.4 65 18.3 93 93 N N/A 30 1016 10 16.0934 N/A
8:56 am 08:56 Sunny 74 23.3 66 18.9 76 76 N N/A 30 1016 10 16.0934 N/A
9:56 am 09:56 Sunny 80 26.7 67 19.4 64 64 WNW 3 6 30 1016 10 16.0934 N/A
10:56 am 10:56 Sunny 85 29.4 65 18.3 51 51 SW 3 6 30.01 1016 10 16.0934 N/A
11:56 am 11:56 Sunny 85 29.4 63 17.2 48 48 NW 5 7 30 1016 10 16.0934 N/A
12:56 pm 12:56 Mostly Sunny 85 29.4 64 17.8 50 50 VRB 5 7 29.98 1015 10 16.0934 N/A
1:56 pm 13:56 Mostly Cloudy 88 31.1 65 18.3 46 46 WNW 8 13 29.97 1015 10 16.0934 N/A
2:56 pm 14:56 Mostly Cloudy 88 31.1 63 17.2 43 43 NW 9 15 29.96 1015 10 16.0934 N/A
3:56 pm 15:56 Mostly Sunny 88 31.1 63 17.2 43 43 WNW 6 9 29.94 1014 10 16.0934 N/A
4:56 pm 16:56 Mostly Sunny 89 31.7 62 16.7 41 41 VRB 5 7 29.92 1013 10 16.0934 N/A
5:56 pm 17:56 Partly Cloudy 89 31.7 63 17.2 42 42 W 12 19 29.91 1013 10 16.0934 N/A
6:56 pm 18:56 Partly Cloudy 87 30.6 63 17.2 45 45 WNW 8 13 29.9 1013 10 16.0934 N/A
7:56 pm 19:56 Mostly Sunny 84 28.9 65 18.3 53 53 NW 7 11 29.9 1012 10 16.0934 N/A
8:56 pm 20:56 Clear 79 26.1 65 18.3 62 62 WNW 7 11 29.89 1012 10 16.0934 N/A
9:56 pm 21:56 Clear 74 23.3 66 18.9 76 76 SW 3 6 29.91 1013 8 12.87472 N/A
10:56 pm 22:56 Clear 71 21.7 65 18.3 81 81 N N/A 29.91 1013 10 16.0934 N/A
11:56 pm 23:56 Clear 69 20.6 65 18.3 87 87 N N/A 29.92 1013 10 16.0934 N/A

Powered by AerisWeather